Time;durP1;ratioP1;P1;durP2;ratioP2;P2;SDS_P1;SDS_P2;PMS_P1;PMS_P2;Temp;Humidity;BMP_temperature;BMP_pressure;BME280_temperature;BME280_humidity;BME280_pressure;Samples;Min_cycle;Max_cycle;Signal;HPM_P1;HPM_P2
2022/07/27 00:00:32;;;;;;;4.22;3.05;;;;;;;19.63;76.07;96169.28;5050215;28;20045;-77
2022/07/27 00:02:59;;;;;;;5.38;3.13;;;;;;;19.61;75.78;96171.66;5050222;28;20060;-77
2022/07/27 00:05:25;;;;;;;3.47;2.78;;;;;;;19.61;75.71;96174.41;5049644;28;20052;-77
2022/07/27 00:07:53;;;;;;;5.45;3.03;;;;;;;19.60;76.07;96170.06;5050078;28;20041;-79
2022/07/27 00:10:19;;;;;;;4.90;3.08;;;;;;;19.58;74.96;96166.88;5049485;28;20043;-77
2022/07/27 00:12:46;;;;;;;6.47;3.33;;;;;;;19.62;75.21;96170.47;5050216;28;20049;-77
2022/07/27 00:15:12;;;;;;;4.82;3.30;;;;;;;19.61;75.03;96168.88;5049557;28;20052;-76
2022/07/27 00:17:39;;;;;;;6.65;3.30;;;;;;;19.57;74.76;96166.06;5049933;28;20040;-77
2022/07/27 00:20:06;;;;;;;5.40;3.38;;;;;;;19.60;75.72;96159.00;5044701;28;20049;-76
2022/07/27 00:22:33;;;;;;;4.47;3.13;;;;;;;19.57;76.38;96160.53;5049490;28;20056;-77
2022/07/27 00:25:01;;;;;;;4.78;3.13;;;;;;;19.56;76.21;96154.22;5049910;28;20048;-77
2022/07/27 00:27:27;;;;;;;3.65;2.72;;;;;;;19.54;74.87;96153.81;5049858;28;20146;-77
2022/07/27 00:29:54;;;;;;;5.35;3.03;;;;;;;19.55;74.49;96146.31;5049802;28;20403;-76
2022/07/27 00:32:20;;;;;;;4.38;3.03;;;;;;;19.48;73.81;96144.28;5049490;28;20507;-76
2022/07/27 00:34:47;;;;;;;6.03;3.00;;;;;;;19.45;74.29;96147.81;5049990;28;20044;-76
2022/07/27 00:37:14;;;;;;;5.30;2.88;;;;;;;19.39;73.30;96143.81;5049525;28;20049;-77
2022/07/27 00:39:42;;;;;;;4.43;2.83;;;;;;;19.33;74.00;96142.56;5049878;28;20048;-77
2022/07/27 00:42:10;;;;;;;3.22;2.72;;;;;;;19.28;74.19;96131.88;5049192;28;20040;-77
2022/07/27 00:44:36;;;;;;;4.78;2.95;;;;;;;19.26;74.01;96139.72;5049683;28;20048;-76
2022/07/27 00:47:03;;;;;;;4.95;3.30;;;;;;;19.22;75.09;96136.16;5048968;28;20044;-77
2022/07/27 00:49:29;;;;;;;4.55;2.97;;;;;;;19.15;73.50;96136.06;5048872;28;20381;-78
2022/07/27 00:51:56;;;;;;;4.63;2.63;;;;;;;19.11;72.84;96138.00;5049631;28;20056;-77
2022/07/27 00:54:22;;;;;;;4.43;2.80;;;;;;;19.08;73.29;96136.00;5048816;28;20044;-77
2022/07/27 00:56:49;;;;;;;6.03;3.03;;;;;;;19.06;74.25;96132.84;5049602;28;20048;-77
2022/07/27 00:59:17;;;;;;;5.60;3.42;;;;;;;19.00;75.42;96149.72;5048812;28;20543;-76
2022/07/27 01:01:43;;;;;;;5.53;3.58;;;;;;;18.99;74.99;96141.81;5049598;28;20060;-77
2022/07/27 01:04:10;;;;;;;7.20;4.15;;;;;;;18.74;74.66;96142.34;5048443;28;20045;-77
2022/07/27 01:06:37;;;;;;;4.13;3.50;;;;;;;18.76;74.31;96147.47;5049500;28;20048;-76
2022/07/27 01:11:48;;;;;;;6.15;3.15;;;;;;;18.82;73.94;96137.69;5049736;28;20048;-76
2022/07/27 01:14:17;;;;;;;6.82;3.40;;;;;;;18.83;73.90;96144.78;5048923;28;20048;-76
2022/07/27 01:16:44;;;;;;;4.32;3.15;;;;;;;18.84;73.78;96143.59;5049418;28;20397;-76
2022/07/27 01:19:12;;;;;;;4.05;3.10;;;;;;;18.85;73.61;96139.69;5046254;28;20045;-77
2022/07/27 01:21:40;;;;;;;5.07;2.90;;;;;;;18.86;73.36;96132.22;5049427;28;20049;-77
2022/07/27 01:24:07;;;;;;;3.95;2.70;;;;;;;18.89;73.82;96142.47;5048766;28;20041;-80
2022/07/27 01:26:34;;;;;;;3.88;2.80;;;;;;;18.91;74.46;96129.91;5049456;28;20048;-77
2022/07/27 01:29:01;;;;;;;4.38;2.85;;;;;;;18.90;71.30;96128.34;5049159;28;20051;-77
2022/07/27 01:31:28;;;;;;;6.45;2.90;;;;;;;18.90;70.54;96127.53;5049085;28;20044;-77
2022/07/27 01:33:55;;;;;;;3.35;2.90;;;;;;;18.92;69.76;96120.47;5049832;28;20036;-78
2022/07/27 01:36:21;;;;;;;4.03;2.70;;;;;;;18.95;70.37;96111.44;5052482;28;20053;-77
2022/07/27 01:38:49;;;;;;;4.07;2.83;;;;;;;18.95;71.42;96103.16;5052841;28;20056;-77
2022/07/27 01:41:15;;;;;;;5.35;3.10;;;;;;;18.93;72.46;96094.44;5052288;28;20045;-77
2022/07/27 01:43:43;;;;;;;4.32;3.20;;;;;;;18.82;71.80;96087.25;5052744;28;20041;-77
2022/07/27 01:46:10;;;;;;;4.07;2.80;;;;;;;18.82;71.99;96092.75;5052242;28;20041;-76
2022/07/27 01:48:36;;;;;;;4.28;3.08;;;;;;;18.84;72.03;96095.91;5052101;28;20040;-76
2022/07/27 01:51:03;;;;;;;5.10;2.90;;;;;;;18.74;72.10;96094.63;5033140;28;20048;-77
2022/07/27 01:53:30;;;;;;;4.38;2.30;;;;;;;18.61;72.50;96104.31;5032552;28;20050;-77
2022/07/27 01:55:57;;;;;;;4.75;2.92;;;;;;;18.54;72.72;96098.72;5032629;28;20088;-75
2022/07/27 01:58:24;;;;;;;4.18;2.78;;;;;;;18.55;72.91;96092.03;5032101;28;20041;-76
2022/07/27 02:00:51;;;;;;;6.53;3.25;;;;;;;18.52;73.65;96080.56;5032461;28;20045;-76
2022/07/27 02:03:17;;;;;;;4.40;2.85;;;;;;;18.51;74.33;96079.00;5031523;28;20571;-76
2022/07/27 02:05:44;;;;;;;6.03;2.53;;;;;;;18.52;74.99;96075.06;5032045;28;20049;-76
2022/07/27 02:08:10;;;;;;;3.40;2.60;;;;;;;18.48;74.38;96079.75;5031603;28;20048;-76
2022/07/27 02:12:34;;;;;;;4.45;3.00;;;;;;;18.39;74.25;96079.25;5032403;28;20045;-76
2022/07/27 02:13:24;;;;;;;4.13;2.55;;;;;;;18.35;74.43;96078.41;5031493;28;20485;-77
2022/07/27 02:15:51;;;;;;;5.97;2.90;;;;;;;18.30;74.17;96078.72;5032153;28;20051;-77
2022/07/27 02:18:17;;;;;;;5.07;3.03;;;;;;;18.19;76.30;96083.31;5031452;28;20053;-76
2022/07/27 02:20:44;;;;;;;4.45;3.00;;;;;;;18.04;76.80;96079.56;5049291;28;20040;-77
2022/07/27 02:23:10;;;;;;;6.68;3.22;;;;;;;17.96;77.04;96078.69;5051424;28;20056;-76
2022/07/27 02:25:36;;;;;;;4.50;2.60;;;;;;;17.96;77.01;96075.94;5051874;28;20044;-77
2022/07/27 02:28:03;;;;;;;4.75;3.00;;;;;;;17.96;75.98;96075.94;5051100;28;20049;-77
2022/07/27 02:30:31;;;;;;;3.80;2.60;;;;;;;17.95;74.64;96085.34;5051764;28;20045;-76
2022/07/27 02:32:58;;;;;;;3.67;2.63;;;;;;;18.00;74.53;96092.50;5051440;28;20424;-76
2022/07/27 02:35:24;;;;;;;6.22;2.63;;;;;;;18.01;74.69;96091.34;5051067;28;20052;-77
2022/07/27 02:37:51;;;;;;;4.55;2.50;;;;;;;18.03;72.25;96088.22;5051773;28;20095;-77
2022/07/27 02:40:19;;;;;;;3.58;2.50;;;;;;;18.00;72.86;96093.28;5051095;28;20049;-77
2022/07/27 02:42:46;;;;;;;2.95;2.30;;;;;;;18.02;73.32;96095.69;5051511;28;20049;-76
2022/07/27 02:45:13;;;;;;;4.18;2.58;;;;;;;17.97;73.22;96088.53;5050985;28;20045;-77
2022/07/27 02:47:41;;;;;;;6.90;3.80;;;;;;;17.95;73.87;96090.06;5050914;28;20037;-77
2022/07/27 02:50:09;;;;;;;5.18;2.85;;;;;;;17.94;75.06;96094.78;5048491;28;20056;-76
2022/07/27 02:52:36;;;;;;;3.78;3.05;;;;;;;17.93;75.47;96098.69;5051402;28;20045;-77
2022/07/27 02:55:03;;;;;;;4.68;3.20;;;;;;;17.85;75.04;96096.22;5050853;28;20045;-76
2022/07/27 02:57:33;;;;;;;5.95;2.90;;;;;;;17.79;75.24;96103.19;5051162;28;20048;-76
2022/07/27 02:59:59;;;;;;;6.47;3.30;;;;;;;17.73;76.62;96109.03;5051300;28;20056;-76
2022/07/27 03:02:26;;;;;;;5.78;3.20;;;;;;;17.80;77.77;96100.09;5050616;28;20060;-77
2022/07/27 03:04:54;;;;;;;7.40;4.25;;;;;;;17.84;79.18;96105.63;5050895;28;20037;-76
2022/07/27 03:07:20;;;;;;;4.53;3.30;;;;;;;17.87;78.88;96100.19;5050415;28;20055;-77
2022/07/27 03:09:46;;;;;;;5.75;3.47;;;;;;;17.95;78.95;96104.63;5051046;28;20045;-76
2022/07/27 03:12:13;;;;;;;6.03;3.47;;;;;;;17.95;78.84;96103.84;5050350;28;20044;-77
2022/07/27 03:14:39;;;;;;;3.97;3.50;;;;;;;17.95;78.98;96107.38;5050941;28;20048;-77
2022/07/27 03:17:06;;;;;;;8.05;3.80;;;;;;;18.02;79.14;96105.91;5050420;28;20045;-77
2022/07/27 03:19:32;;;;;;;8.55;4.18;;;;;;;17.83;76.19;96117.81;5048187;28;20068;-77
2022/07/27 03:22:00;;;;;;;8.10;4.82;;;;;;;17.79;75.58;96114.22;5050958;28;20535;-76
2022/07/27 03:24:27;;;;;;;8.43;4.10;;;;;;;17.48;75.80;96122.34;5050273;28;20048;-76
2022/07/27 03:26:53;;;;;;;7.80;4.10;;;;;;;17.58;76.07;96120.94;5050577;28;20041;-76
2022/07/27 03:29:20;;;;;;;6.00;3.90;;;;;;;17.67;75.88;96117.94;5050088;28;20052;-77
2022/07/27 03:31:46;;;;;;;9.98;3.65;;;;;;;17.58;75.23;96109.16;5050577;28;20041;-77
2022/07/27 03:34:13;;;;;;;6.00;3.15;;;;;;;17.73;75.90;96105.47;5049853;28;20049;-76
2022/07/27 03:36:39;;;;;;;4.78;3.13;;;;;;;17.79;74.92;96114.22;5050725;28;20048;-76
2022/07/27 03:39:07;;;;;;;7.15;3.40;;;;;;;17.72;74.60;96109.38;5049933;28;20048;-76
2022/07/27 03:41:33;;;;;;;6.43;3.10;;;;;;;17.84;75.23;96108.41;5050303;28;20118;-77
2022/07/27 03:44:00;;;;;;;6.28;2.92;;;;;;;17.91;74.41;96103.00;5050470;28;20048;-76
2022/07/27 03:46:26;;;;;;;6.15;3.47;;;;;;;17.87;74.54;96110.41;5050283;28;20044;-76
2022/07/27 03:48:53;;;;;;;6.38;3.20;;;;;;;17.85;74.25;96108.00;5049644;28;20048;-77
2022/07/27 03:51:19;;;;;;;5.07;2.90;;;;;;;17.90;73.54;96095.88;5049480;28;20049;-76
2022/07/27 03:53:46;;;;;;;4.50;2.85;;;;;;;17.99;74.16;96097.22;5050140;28;20049;-77
2022/07/27 03:56:14;;;;;;;5.30;3.05;;;;;;;18.00;73.62;96092.50;5049688;28;20045;-76
2022/07/27 03:58:40;;;;;;;6.35;3.13;;;;;;;17.97;71.86;96091.28;5049407;28;20044;-76
2022/07/27 04:01:07;;;;;;;4.97;3.08;;;;;;;18.04;73.03;96089.78;5049852;28;20052;-76
2022/07/27 04:03:33;;;;;;;3.90;2.72;;;;;;;18.07;74.35;96091.81;5050084;28;20049;-76
2022/07/27 04:06:00;;;;;;;5.57;3.80;;;;;;;18.03;75.25;96090.97;5049985;28;20045;-76
2022/07/27 04:08:26;;;;;;;7.35;3.20;;;;;;;18.06;75.05;96096.50;5049782;28;20116;-76
2022/07/27 04:10:53;;;;;;;5.82;3.00;;;;;;;18.04;75.02;96090.59;5050058;28;20041;-76
2022/07/27 04:13:21;;;;;;;6.18;3.88;;;;;;;18.05;75.68;96083.13;5049421;28;20053;-76
2022/07/27 04:15:48;;;;;;;5.85;4.50;;;;;;;17.96;76.20;96086.16;5050138;28;20057;-76
2022/07/27 04:18:14;;;;;;;5.70;4.20;;;;;;;17.93;77.45;96084.13;5049262;28;20049;-77
2022/07/27 04:20:41;;;;;;;7.50;4.30;;;;;;;17.97;78.57;96085.78;5047343;28;20488;-75
2022/07/27 04:23:08;;;;;;;5.55;4.20;;;;;;;18.01;78.85;96088.59;5049289;28;20049;-76
2022/07/27 04:25:34;;;;;;;7.40;4.32;;;;;;;18.04;79.44;96084.28;5049829;28;20075;-76
2022/07/27 04:28:01;;;;;;;9.93;5.28;;;;;;;18.02;79.99;96083.88;5049789;28;20051;-77
2022/07/27 04:30:28;;;;;;;5.35;4.20;;;;;;;18.01;80.27;96088.59;5049437;28;20056;-76
2022/07/27 04:32:55;;;;;;;8.52;4.03;;;;;;;18.07;80.40;96091.81;5049944;28;20041;-78
2022/07/27 04:35:21;;;;;;;5.75;4.40;;;;;;;18.10;80.24;96089.09;5049153;28;20049;-77
2022/07/27 04:37:48;;;;;;;5.90;4.25;;;;;;;18.15;79.36;96090.72;5049928;28;20040;-76
2022/07/27 04:40:14;;;;;;;7.05;3.80;;;;;;;18.11;78.25;96092.63;5049422;28;20052;-77
2022/07/27 04:42:41;;;;;;;10.15;3.97;;;;;;;17.99;78.10;96094.47;5049767;28;20094;-77
2022/07/27 04:45:08;;;;;;;6.43;3.47;;;;;;;18.02;77.74;96097.66;5049443;28;20049;-76
2022/07/27 04:47:36;;;;;;;6.07;3.58;;;;;;;18.06;77.62;96095.72;5050000;28;20064;-77
2022/07/27 04:50:02;;;;;;;6.15;3.55;;;;;;;18.08;77.27;96093.41;5046878;28;20068;-78
2022/07/27 04:52:29;;;;;;;7.25;3.53;;;;;;;18.09;76.00;96094.97;5049713;28;20049;-76
2022/07/27 04:54:55;;;;;;;7.53;2.97;;;;;;;18.09;74.39;96100.50;5049731;28;20044;-76
2022/07/27 04:57:22;;;;;;;5.03;3.35;;;;;;;18.09;74.18;96100.50;5049113;28;20056;-77
2022/07/27 04:59:49;;;;;;;8.15;3.42;;;;;;;18.10;74.17;96107.59;5049688;28;20041;-77
2022/07/27 05:02:15;;;;;;;5.65;3.30;;;;;;;18.03;72.90;96108.28;5048864;28;20053;-77
2022/07/27 05:04:43;;;;;;;7.45;3.15;;;;;;;18.08;74.25;96115.44;5049111;28;20049;-77
2022/07/27 05:07:12;;;;;;;8.05;3.10;;;;;;;18.10;74.17;96113.09;5049159;28;20460;-77
2022/07/27 05:09:39;;;;;;;5.55;3.50;;;;;;;18.05;74.83;96107.91;5051316;28;20042;-78
2022/07/27 05:12:06;;;;;;;5.50;2.88;;;;;;;18.08;74.75;96121.75;5053212;28;20525;-77
2022/07/27 05:14:32;;;;;;;6.55;3.83;;;;;;;17.94;73.88;96119.56;5053376;28;20052;-77
2022/07/27 05:16:59;;;;;;;7.82;3.22;;;;;;;17.88;72.92;96123.81;5053258;28;20057;-76
2022/07/27 05:19:25;;;;;;;6.65;3.13;;;;;;;17.78;73.67;96124.44;5052050;28;20041;-77
2022/07/27 05:21:53;;;;;;;11.23;4.00;;;;;;;17.83;74.68;96126.09;5053222;28;20492;-77
2022/07/27 05:24:19;;;;;;;4.95;3.45;;;;;;;17.87;75.19;96124.97;5052524;28;20041;-77
2022/07/27 05:26:48;;;;;;;7.35;3.72;;;;;;;17.88;75.91;96134.81;5059416;28;20036;-85
2022/07/27 05:29:20;;;;;;;9.20;4.30;;;;;;;17.91;75.39;96134.09;5075428;28;20103;-84
2022/07/27 05:31:51;;;;;;;6.57;3.40;;;;;;;17.96;75.79;96125.53;5077363;28;20065;-86
2022/07/27 05:34:17;;;;;;;8.95;3.90;;;;;;;17.96;76.08;96130.25;5076272;28;20055;-86
2022/07/27 05:36:44;;;;;;;12.38;4.07;;;;;;;17.91;76.51;96134.09;5076449;28;20108;-87
2022/07/27 05:39:12;;;;;;;6.97;3.78;;;;;;;17.92;76.98;96132.94;5435699;22;20015;-87
2022/07/27 05:41:39;;;;;;;6.43;3.40;;;;;;;18.09;75.84;96133.56;5042774;28;20049;-78
2022/07/27 05:44:05;;;;;;;7.03;3.00;;;;;;;18.21;75.75;96127.81;5040080;28;20049;-80
2022/07/27 05:46:32;;;;;;;8.13;4.00;;;;;;;18.26;75.35;96133.00;5029642;28;20049;-81
2022/07/27 05:48:58;;;;;;;5.45;3.42;;;;;;;18.35;75.43;96136.28;5028344;28;20196;-79
2022/07/27 05:51:25;;;;;;;6.28;3.00;;;;;;;18.44;74.86;96136.81;5028434;28;20060;-79
2022/07/27 05:53:51;;;;;;;6.78;2.92;;;;;;;18.57;73.46;96142.06;5029004;28;20053;-81
2022/07/27 05:56:19;;;;;;;7.20;3.58;;;;;;;18.46;71.37;96137.22;5033511;28;20048;-81
2022/07/27 05:58:45;;;;;;;7.72;3.17;;;;;;;18.46;71.32;96151.00;5023104;28;20073;-79
2022/07/27 06:01:12;;;;;;;4.75;2.90;;;;;;;18.55;71.77;96139.69;5010093;28;20050;-81
2022/07/27 06:03:38;;;;;;;5.93;2.88;;;;;;;18.66;73.12;96145.34;5012377;28;20045;-79
2022/07/27 06:08:50;;;;;;;7.95;3.17;;;;;;;18.72;70.81;96155.69;5033266;28;20048;-79
2022/07/27 06:11:16;;;;;;;11.57;2.95;;;;;;;18.57;71.69;96153.09;5032979;28;20053;-80
2022/07/27 06:13:44;;;;;;;9.15;2.78;;;;;;;18.73;71.16;96153.72;5032607;28;20041;-80
2022/07/27 06:16:10;;;;;;;3.75;2.63;;;;;;;18.89;70.49;96148.78;5029594;28;20049;-80
2022/07/27 06:18:37;;;;;;;4.68;2.47;;;;;;;18.96;69.61;96154.41;5031810;28;20071;-81
2022/07/27 06:21:04;;;;;;;5.38;2.38;;;;;;;19.05;69.63;96151.34;5028502;28;20060;-80
2022/07/27 06:23:31;;;;;;;6.95;3.30;;;;;;;19.07;69.46;96154.53;5030945;28;20052;-81
2022/07/27 06:25:57;;;;;;;4.72;2.50;;;;;;;19.10;69.86;96148.22;5031940;28;20742;-80
2022/07/27 06:28:23;;;;;;;5.85;2.60;;;;;;;19.16;67.42;96152.25;5029839;28;20052;-80
2022/07/27 06:30:53;;;;;;;4.55;2.70;;;;;;;19.16;67.85;96152.25;5029789;28;20041;-79
2022/07/27 06:33:26;;;;;;;6.47;3.40;;;;;;;19.13;68.31;96147.50;5030845;28;20203;-80
2022/07/27 06:35:53;;;;;;;6.75;2.83;;;;;;;19.03;67.70;96156.44;5027991;28;20061;-75
2022/07/27 06:38:19;;;;;;;4.47;2.80;;;;;;;19.14;69.14;96142.75;5025164;28;20496;-77
2022/07/27 06:40:46;;;;;;;5.53;2.90;;;;;;;19.27;70.25;96135.81;5024913;28;20312;-77
2022/07/27 06:43:12;;;;;;;6.25;2.80;;;;;;;19.33;68.85;96145.31;5024849;28;20053;-77
2022/07/27 06:45:39;;;;;;;6.93;3.00;;;;;;;19.35;68.98;96153.22;5025742;28;20053;-76
2022/07/27 06:48:07;;;;;;;7.25;2.40;;;;;;;19.42;67.71;96154.09;5011339;28;20054;-74
2022/07/27 06:50:33;;;;;;;5.13;2.50;;;;;;;19.48;66.68;96155.34;5010700;28;20532;-76
2022/07/27 06:53:00;;;;;;;4.22;2.20;;;;;;;19.53;66.40;96157.75;5025387;28;20491;-77
2022/07/27 06:55:26;;;;;;;4.30;2.45;;;;;;;19.58;67.19;96145.56;5011550;28;20129;-73
2022/07/27 06:57:53;;;;;;;3.53;2.60;;;;;;;19.60;65.74;96147.97;5028075;28;20052;-76
2022/07/27 07:00:20;;;;;;;8.38;2.85;;;;;;;19.62;65.88;96151.13;5028344;28;20045;-78
2022/07/27 07:02:51;;;;;;;3.72;2.40;;;;;;;19.69;67.12;96151.22;5027540;28;20060;-77
2022/07/27 07:05:20;;;;;;;6.55;2.75;;;;;;;19.75;65.63;96146.91;5028048;28;20060;-77
2022/07/27 07:07:46;;;;;;;6.10;3.10;;;;;;;19.74;63.89;96146.13;5028940;28;20042;-80
2022/07/27 07:10:13;;;;;;;5.22;2.72;;;;;;;19.79;63.84;96148.53;5028030;28;20053;-75
2022/07/27 07:12:39;;;;;;;5.78;2.88;;;;;;;19.86;65.51;96142.25;5028422;28;20428;-76
2022/07/27 07:15:07;;;;;;;4.65;2.70;;;;;;;19.82;63.21;96144.19;5028287;28;20686;-76
2022/07/27 07:17:33;;;;;;;9.98;3.40;;;;;;;19.78;63.22;96132.31;5028738;28;20643;-79
2022/07/27 07:20:00;;;;;;;5.05;2.90;;;;;;;19.87;63.50;96127.25;5028483;28;20056;-79
2022/07/27 07:22:28;;;;;;;4.53;2.50;;;;;;;20.07;64.12;96134.13;5028298;28;20056;-77
2022/07/27 07:24:55;;;;;;;6.90;3.22;;;;;;;20.15;64.83;96134.16;5028688;28;20041;-78
2022/07/27 07:27:24;;;;;;;6.43;2.90;;;;;;;20.25;66.73;96127.91;5028665;28;20049;-78
2022/07/27 07:29:51;;;;;;;4.80;2.30;;;;;;;20.35;66.08;96127.16;5028137;28;20111;-76
2022/07/27 07:32:21;;;;;;;6.25;2.53;;;;;;;20.36;64.91;96128.78;5027654;28;20520;-75
2022/07/27 07:34:48;;;;;;;6.03;2.70;;;;;;;20.40;64.62;96129.56;5025706;28;20049;-78
2022/07/27 07:37:15;;;;;;;4.60;2.70;;;;;;;20.36;62.16;96123.25;5027454;28;20046;-74
2022/07/27 07:39:42;;;;;;;4.65;2.67;;;;;;;20.45;61.57;96129.19;5027790;28;20074;-75
2022/07/27 07:42:09;;;;;;;7.25;3.30;;;;;;;20.54;61.08;96118.59;5027638;28;20049;-75
2022/07/27 07:44:35;;;;;;;4.82;2.42;;;;;;;20.74;61.96;96123.84;5027750;28;20045;-77
2022/07/27 07:47:02;;;;;;;9.82;3.60;;;;;;;20.85;62.59;96119.91;5027473;28;20053;-78
2022/07/27 07:49:28;;;;;;;2.70;2.17;;;;;;;20.85;63.41;96121.88;5027014;28;20061;-75
2022/07/27 07:51:55;;;;;;;11.20;2.92;;;;;;;20.90;64.16;96131.78;5016553;28;20053;-74
2022/07/27 07:54:21;;;;;;;6.88;2.22;;;;;;;21.07;64.02;96123.53;5026756;28;20056;-74
2022/07/27 07:56:49;;;;;;;6.35;2.28;;;;;;;21.26;62.82;96124.38;5028019;28;20052;-74
2022/07/27 07:59:16;;;;;;;4.88;2.33;;;;;;;21.30;62.38;96128.75;5028877;28;20053;-74
2022/07/27 08:01:42;;;;;;;7.60;2.80;;;;;;;21.43;59.75;96123.63;5029015;28;20480;-74
2022/07/27 08:04:09;;;;;;;5.38;2.80;;;;;;;21.55;60.28;96130.75;5028219;28;20073;-76
2022/07/27 08:06:37;;;;;;;4.63;2.22;;;;;;;21.55;59.09;96131.53;5029576;28;20041;-75
2022/07/27 08:09:04;;;;;;;5.10;2.35;;;;;;;21.65;61.40;96137.50;5029024;28;20049;-74
2022/07/27 08:11:30;;;;;;;5.03;2.30;;;;;;;21.71;62.43;96139.47;5029494;28;20065;-76
2022/07/27 08:13:58;;;;;;;2.80;1.90;;;;;;;21.69;59.35;96143.84;5029309;28;20121;-75
2022/07/27 08:16:26;;;;;;;5.95;2.33;;;;;;;21.71;60.84;96139.47;5028990;28;20440;-76
2022/07/27 08:18:53;;;;;;;7.43;2.45;;;;;;;21.53;62.34;96145.00;5029736;28;20400;-74
2022/07/27 08:21:20;;;;;;;3.95;2.08;;;;;;;21.51;58.64;96146.59;5029594;28;20053;-74
2022/07/27 08:23:46;;;;;;;5.07;1.90;;;;;;;21.32;56.41;96156.06;5029230;28;20049;-74
2022/07/27 08:26:15;;;;;;;4.28;2.38;;;;;;;21.67;58.61;96154.53;5029638;28;20520;-75
2022/07/27 08:28:41;;;;;;;5.45;2.38;;;;;;;22.07;60.25;96145.78;5029751;28;20496;-75
2022/07/27 08:31:09;;;;;;;4.38;2.63;;;;;;;22.36;56.12;96145.78;5029377;28;20045;-78
2022/07/27 08:33:35;;;;;;;3.72;2.33;;;;;;;22.48;54.96;96148.13;5029537;28;20489;-79
2022/07/27 08:36:02;;;;;;;2.65;1.80;;;;;;;22.72;53.83;96143.69;5030252;28;20056;-79
2022/07/27 08:38:29;;;;;;;6.82;1.98;;;;;;;22.86;53.36;96145.59;5031509;28;20049;-73
2022/07/27 08:40:56;;;;;;;4.72;2.20;;;;;;;22.80;52.22;96147.22;5029584;28;20041;-76
2022/07/27 08:43:24;;;;;;;4.18;2.35;;;;;;;22.93;52.93;96148.41;5029431;28;20046;-77
2022/07/27 08:45:53;;;;;;;6.72;2.35;;;;;;;22.90;54.56;96149.97;5033383;28;20115;-76
2022/07/27 08:48:22;;;;;;;7.55;2.55;;;;;;;22.94;54.57;96147.19;5033492;28;20130;-77
2022/07/27 08:50:49;;;;;;;6.10;2.33;;;;;;;22.97;57.37;96143.63;5030966;28;20041;-77
2022/07/27 08:53:17;;;;;;;5.10;2.33;;;;;;;23.08;55.79;96149.91;5033186;28;20046;-75
2022/07/27 08:55:45;;;;;;;8.85;2.42;;;;;;;23.07;55.10;96145.53;5033648;28;20045;-76
2022/07/27 08:58:12;;;;;;;2.88;2.00;;;;;;;23.18;58.42;96149.06;5033277;28;20434;-76
2022/07/27 09:00:43;;;;;;;4.03;1.95;;;;;;;23.21;55.84;96143.91;5033482;28;20053;-76
2022/07/27 09:03:11;;;;;;;3.78;2.20;;;;;;;23.16;54.33;96147.88;5033122;28;20405;-77
2022/07/27 09:05:43;;;;;;;5.07;2.53;;;;;;;23.23;55.50;96152.59;5033519;28;20037;-76
2022/07/27 09:08:10;;;;;;;5.60;2.67;;;;;;;23.15;55.71;96158.22;5033088;28;20682;-76
2022/07/27 09:10:38;;;;;;;3.95;2.78;;;;;;;22.87;55.00;96152.75;5033269;28;20643;-75
2022/07/27 09:13:17;;;;;;;3.53;2.28;;;;;;;22.96;54.05;96155.91;5033087;28;20041;-77
2022/07/27 09:15:44;;;;;;;4.43;2.30;;;;;;;22.98;55.92;96161.88;5033439;28;20050;-74
2022/07/27 09:18:18;;;;;;;4.13;2.20;;;;;;;22.95;53.21;96159.88;5032921;28;20053;-74
2022/07/27 09:20:46;;;;;;;3.60;2.40;;;;;;;22.79;54.73;96159.53;5030807;28;20045;-78
2022/07/27 09:23:25;;;;;;;4.70;1.88;;;;;;;22.96;52.81;96161.47;5033024;28;20049;-75
2022/07/27 09:26:09;;;;;;;2.83;1.90;;;;;;;22.98;53.05;96164.66;5032943;28;20374;-76
2022/07/27 09:28:36;;;;;;;3.85;2.10;;;;;;;22.87;54.77;96158.31;5033528;28;20049;-78
2022/07/27 09:31:06;;;;;;;4.70;2.15;;;;;;;22.79;54.74;96162.31;5032633;28;20056;-76
2022/07/27 09:33:40;;;;;;;3.17;2.00;;;;;;;22.79;53.15;96165.06;5033110;28;20407;-74
2022/07/27 09:36:09;;;;;;;7.28;2.00;;;;;;;22.77;53.64;96154.38;5032574;28;20041;-74
2022/07/27 09:38:35;;;;;;;3.83;1.83;;;;;;;22.78;53.33;96160.72;5032728;28;20645;-74
2022/07/27 09:41:03;;;;;;;4.78;2.53;;;;;;;22.77;52.14;96159.94;5032399;28;20052;-73
2022/07/27 09:43:32;;;;;;;3.75;1.90;;;;;;;22.75;53.81;96159.53;5032842;28;20098;-73
2022/07/27 09:46:06;;;;;;;3.70;1.90;;;;;;;22.76;53.99;96163.09;5032898;28;20049;-75
2022/07/27 09:48:34;;;;;;;3.53;2.13;;;;;;;22.75;53.86;96161.53;5032759;28;20037;-75
2022/07/27 09:51:02;;;;;;;5.00;2.33;;;;;;;22.85;53.84;96157.91;5030572;28;20060;-77
2022/07/27 09:53:32;;;;;;;4.78;2.03;;;;;;;22.87;53.27;96153.56;5032635;28;20052;-75
2022/07/27 09:56:00;;;;;;;3.97;2.15;;;;;;;22.90;52.52;96154.75;5031081;28;20054;-75
2022/07/27 09:58:48;;;;;;;4.32;2.00;;;;;;;22.64;51.96;96165.13;5031979;28;20049;-75
2022/07/27 10:01:18;;;;;;;6.00;2.38;;;;;;;22.83;54.92;96163.88;5031808;28;20048;-79
2022/07/27 10:03:46;;;;;;;5.07;2.03;;;;;;;22.95;53.72;96162.66;5032392;28;20516;-75
2022/07/27 10:06:13;;;;;;;5.35;2.20;;;;;;;22.92;53.09;96163.50;5031684;28;20049;-79
2022/07/27 10:08:42;;;;;;;4.20;1.90;;;;;;;23.04;52.24;96167.78;5032166;28;20048;-79
2022/07/27 10:11:09;;;;;;;9.25;2.28;;;;;;;22.96;51.85;96169.78;5031511;28;20060;-77
2022/07/27 10:13:37;;;;;;;6.88;2.30;;;;;;;23.24;53.44;96166.09;5032321;28;20042;-75
2022/07/27 10:16:05;;;;;;;4.80;2.20;;;;;;;23.29;48.80;96162.13;5023076;28;20037;-76
2022/07/27 10:18:52;;;;;;;4.43;2.05;;;;;;;23.72;49.76;96164.63;5046830;28;20497;-75
2022/07/27 10:21:20;;;;;;;4.60;2.05;;;;;;;23.89;51.24;96161.72;5032723;28;20128;-78
2022/07/27 10:23:59;;;;;;;4.82;1.70;;;;;;;24.20;48.51;96157.06;5034177;28;20045;-80
2022/07/27 10:26:32;;;;;;;4.35;1.75;;;;;;;24.43;47.33;96169.59;5036610;28;20045;-81
2022/07/27 10:29:00;;;;;;;7.35;2.10;;;;;;;24.42;48.19;96166.03;5042877;28;20037;-81
2022/07/27 10:31:28;;;;;;;2.75;1.70;;;;;;;24.35;45.08;96168.06;5042671;28;20042;-82
2022/07/27 10:33:56;;;;;;;3.65;1.73;;;;;;;24.41;46.29;96172.81;5041112;28;20046;-81
2022/07/27 10:36:49;;;;;;;4.78;2.10;;;;;;;24.27;45.35;96167.34;5039486;28;20045;-81
2022/07/27 10:39:35;;;;;;;2.47;1.35;;;;;;;24.33;46.45;96167.72;5039078;28;20045;-81
2022/07/27 10:42:32;;;;;;;3.38;1.52;;;;;;;24.41;45.38;96174.78;5038399;28;20041;-79
2022/07/27 10:45:05;;;;;;;2.83;1.35;;;;;;;24.52;45.36;96174.69;4974008;28;20650;-81
2022/07/27 10:47:33;;;;;;;;;;;;;;;24.50;45.67;96177.88;5026233;28;20037;-81
2022/07/27 10:50:31;;;;;;;4.30;1.80;;;;;;;24.37;43.83;96174.03;5040531;28;19925;-80
2022/07/27 10:53:07;;;;;;;5.60;1.80;;;;;;;24.35;47.42;96182.00;5008649;28;20045;-81
2022/07/27 10:55:51;;;;;;;3.83;1.63;;;;;;;24.46;46.47;96174.34;5040186;28;20047;-80
2022/07/27 10:58:49;;;;;;;4.50;1.90;;;;;;;24.37;47.31;96168.47;5039430;28;20582;-81
2022/07/27 11:01:17;;;;;;;2.08;1.40;;;;;;;24.38;46.35;96170.03;5038726;28;20107;-81
2022/07/27 11:03:54;;;;;;;4.55;1.90;;;;;;;24.15;46.41;96174.22;5040713;28;20041;-81
2022/07/27 11:06:25;;;;;;;2.97;1.50;;;;;;;24.16;44.95;96170.22;5038155;28;20540;-82
2022/07/27 11:08:53;;;;;;;2.97;1.43;;;;;;;24.07;44.56;96183.84;5039367;28;20064;-80
2022/07/27 11:11:23;;;;;;;3.70;1.90;;;;;;;24.08;46.55;96173.50;5039723;28;20052;-82
2022/07/27 11:13:52;;;;;;;4.05;2.42;;;;;;;24.12;45.37;96171.47;5041264;28;20038;-80
2022/07/27 11:16:18;;;;;;;1.92;1.45;;;;;;;24.36;47.31;96176.03;5038487;28;20041;-81
2022/07/27 11:18:52;;;;;;;3.00;1.48;;;;;;;24.34;43.33;96174.84;5038265;28;20038;-82
2022/07/27 11:21:21;;;;;;;3.70;1.20;;;;;;;24.19;44.38;96174.97;5045953;28;20055;-80
2022/07/27 11:23:49;;;;;;;8.48;1.70;;;;;;;24.12;44.56;96169.47;5042742;28;20053;-81
2022/07/27 11:26:16;;;;;;;3.45;1.50;;;;;;;24.28;45.88;96176.50;5039417;28;20076;-81
2022/07/27 11:28:44;;;;;;;2.63;1.50;;;;;;;24.34;45.28;96169.28;5039971;28;20073;-82
2022/07/27 11:31:12;;;;;;;4.38;1.23;;;;;;;24.46;46.78;96169.56;5040004;28;20060;-83
2022/07/27 11:33:49;;;;;;;4.28;1.40;;;;;;;24.47;44.11;96165.56;5042750;28;20037;-81
2022/07/27 11:36:16;;;;;;;3.42;1.50;;;;;;;24.59;42.84;96167.06;5031460;28;20052;-77
2022/07/27 11:38:47;;;;;;;4.45;1.55;;;;;;;24.58;42.06;96167.47;5029529;28;20463;-77
2022/07/27 11:41:25;;;;;;;2.28;1.30;;;;;;;24.57;43.73;96161.09;5028931;28;20515;-77
2022/07/27 11:43:54;;;;;;;2.70;1.45;;;;;;;24.55;44.76;96166.31;5030287;28;20049;-76